sensor_id;sensor_type;location;lat;lon;timestamp;P1;durP1;ratioP1;P2;durP2;ratioP2
69917;SDS011;57203;42.672;23.334;2024-01-30T00:00:39;6.1;;;4.2;;
69917;SDS011;57203;42.672;23.334;2024-01-30T00:01:39;7.2;;;4.1;;
69917;SDS011;57203;42.672;23.334;2024-01-30T00:02:39;7.2;;;4.3;;
69917;SDS011;57203;42.672;23.334;2024-01-30T00:03:39;6.6;;;3.7;;
69917;SDS011;57203;42.672;23.334;2024-01-30T00:04:40;6.4;;;4.0;;
69917;SDS011;57203;42.672;23.334;2024-01-30T00:06:40;7.3;;;4.5;;
69917;SDS011;57203;42.672;23.334;2024-01-30T00:07:40;6.4;;;4.1;;
69917;SDS011;57203;42.672;23.334;2024-01-30T00:08:40;7.1;;;4.4;;
69917;SDS011;57203;42.672;23.334;2024-01-30T00:10:41;6.7;;;5.5;;
69917;SDS011;57203;42.672;23.334;2024-01-30T00:11:41;13.0;;;5.8;;
69917;SDS011;57203;42.672;23.334;2024-01-30T00:12:41;13.0;;;6.2;;
69917;SDS011;57203;42.672;23.334;2024-01-30T00:13:41;17.6;;;7.2;;
69917;SDS011;57203;42.672;23.334;2024-01-30T00:14:41;17.6;;;62.7;;
69917;SDS011;57203;42.672;23.334;2024-01-30T00:15:41;102.1;;;25.8;;
69917;SDS011;57203;42.672;23.334;2024-01-30T00:16:41;28.9;;;9.6;;
69917;SDS011;57203;42.672;23.334;2024-01-30T00:17:41;28.9;;;18.6;;
69917;SDS011;57203;42.672;23.334;2024-01-30T00:18:42;83.5;;;18.7;;
69917;SDS011;57203;42.672;23.334;2024-01-30T00:19:42;83.5;;;14.2;;
69917;SDS011;57203;42.672;23.334;2024-01-30T00:20:42;39.6;;;11.6;;
69917;SDS011;57203;42.672;23.334;2024-01-30T00:21:42;39.6;;;8.5;;
69917;SDS011;57203;42.672;23.334;2024-01-30T00:22:42;25.4;;;6.6;;
69917;SDS011;57203;42.672;23.334;2024-01-30T00:23:42;18.5;;;5.5;;
69917;SDS011;57203;42.672;23.334;2024-01-30T00:24:42;11.2;;;4.7;;
69917;SDS011;57203;42.672;23.334;2024-01-30T00:25:43;7.2;;;4.9;;
69917;SDS011;57203;42.672;23.334;2024-01-30T00:26:43;8.7;;;4.3;;
69917;SDS011;57203;42.672;23.334;2024-01-30T00:27:43;8.7;;;4.9;;
69917;SDS011;57203;42.672;23.334;2024-01-30T00:28:43;7.5;;;4.5;;
69917;SDS011;57203;42.672;23.334;2024-01-30T00:29:43;6.9;;;4.6;;
69917;SDS011;57203;42.672;23.334;2024-01-30T00:30:43;6.6;;;4.0;;
69917;SDS011;57203;42.672;23.334;2024-01-30T00:31:44;8.5;;;5.1;;
69917;SDS011;57203;42.672;23.334;2024-01-30T00:32:44;7.2;;;4.3;;
69917;SDS011;57203;42.672;23.334;2024-01-30T00:33:44;7.2;;;4.8;;
69917;SDS011;57203;42.672;23.334;2024-01-30T00:34:44;7.2;;;5.5;;
69917;SDS011;57203;42.672;23.334;2024-01-30T00:35:44;9.3;;;5.4;;
69917;SDS011;57203;42.672;23.334;2024-01-30T00:36:44;68.0;;;20.7;;
69917;SDS011;57203;42.672;23.334;2024-01-30T00:37:44;68.0;;;21.3;;
69917;SDS011;57203;42.672;23.334;2024-01-30T00:38:45;72.2;;;14.8;;
69917;SDS011;57203;42.672;23.334;2024-01-30T00:39:45;32.1;;;11.8;;
69917;SDS011;57203;42.672;23.334;2024-01-30T00:40:45;32.1;;;8.4;;
69917;SDS011;57203;42.672;23.334;2024-01-30T00:41:45;21.3;;;6.5;;
69917;SDS011;57203;42.672;23.334;2024-01-30T00:42:45;12.7;;;6.3;;
69917;SDS011;57203;42.672;23.334;2024-01-30T00:43:45;12.7;;;5.5;;
69917;SDS011;57203;42.672;23.334;2024-01-30T00:44:45;9.7;;;4.9;;
69917;SDS011;57203;42.672;23.334;2024-01-30T00:45:46;9.3;;;5.4;;
69917;SDS011;57203;42.672;23.334;2024-01-30T00:46:46;8.5;;;4.7;;
69917;SDS011;57203;42.672;23.334;2024-01-30T00:47:46;9.7;;;5.0;;
69917;SDS011;57203;42.672;23.334;2024-01-30T00:48:46;9.7;;;4.9;;
69917;SDS011;57203;42.672;23.334;2024-01-30T00:49:46;8.3;;;4.8;;
69917;SDS011;57203;42.672;23.334;2024-01-30T00:50:46;8.3;;;5.0;;
69917;SDS011;57203;42.672;23.334;2024-01-30T00:51:46;8.8;;;4.7;;
69917;SDS011;57203;42.672;23.334;2024-01-30T00:52:47;9.0;;;4.9;;
69917;SDS011;57203;42.672;23.334;2024-01-30T00:54:47;7.4;;;4.4;;
69917;SDS011;57203;42.672;23.334;2024-01-30T00:55:47;6.6;;;4.2;;
69917;SDS011;57203;42.672;23.334;2024-01-30T00:56:47;6.1;;;4.0;;
69917;SDS011;57203;42.672;23.334;2024-01-30T00:57:47;5.6;;;4.1;;
69917;SDS011;57203;42.672;23.334;2024-01-30T00:58:47;5.6;;;4.5;;
69917;SDS011;57203;42.672;23.334;2024-01-30T00:59:48;5.3;;;3.9;;
69917;SDS011;57203;42.672;23.334;2024-01-30T01:00:48;5.3;;;4.5;;
69917;SDS011;57203;42.672;23.334;2024-01-30T01:01:48;6.1;;;4.1;;
69917;SDS011;57203;42.672;23.334;2024-01-30T01:02:48;7.2;;;4.4;;
69917;SDS011;57203;42.672;23.334;2024-01-30T01:04:48;8.4;;;4.5;;
69917;SDS011;57203;42.672;23.334;2024-01-30T01:05:48;6.4;;;4.7;;
69917;SDS011;57203;42.672;23.334;2024-01-30T01:06:49;8.0;;;4.6;;
69917;SDS011;57203;42.672;23.334;2024-01-30T01:10:49;7.4;;;4.7;;
69917;SDS011;57203;42.672;23.334;2024-01-30T01:11:49;7.0;;;4.8;;
69917;SDS011;57203;42.672;23.334;2024-01-30T01:12:49;7.0;;;4.6;;
69917;SDS011;57203;42.672;23.334;2024-01-30T01:13:50;7.6;;;5.1;;
69917;SDS011;57203;42.672;23.334;2024-01-30T01:16:50;7.7;;;4.9;;
69917;SDS011;57203;42.672;23.334;2024-01-30T01:17:50;7.8;;;4.8;;
69917;SDS011;57203;42.672;23.334;2024-01-30T01:18:50;8.5;;;4.4;;
69917;SDS011;57203;42.672;23.334;2024-01-30T01:19:51;7.9;;;5.2;;
69917;SDS011;57203;42.672;23.334;2024-01-30T01:20:51;7.9;;;4.8;;
69917;SDS011;57203;42.672;23.334;2024-01-30T01:21:51;6.6;;;5.1;;
69917;SDS011;57203;42.672;23.334;2024-01-30T01:23:51;8.1;;;5.2;;
69917;SDS011;57203;42.672;23.334;2024-01-30T01:24:51;7.7;;;5.5;;
69917;SDS011;57203;42.672;23.334;2024-01-30T01:25:51;7.7;;;4.8;;
69917;SDS011;57203;42.672;23.334;2024-01-30T01:26:52;11.0;;;5.1;;
69917;SDS011;57203;42.672;23.334;2024-01-30T01:27:52;11.0;;;4.6;;
69917;SDS011;57203;42.672;23.334;2024-01-30T01:28:52;7.6;;;4.5;;
69917;SDS011;57203;42.672;23.334;2024-01-30T01:29:52;6.6;;;4.2;;
69917;SDS011;57203;42.672;23.334;2024-01-30T01:30:52;6.6;;;4.5;;
69917;SDS011;57203;42.672;23.334;2024-01-30T01:31:52;7.1;;;4.9;;
69917;SDS011;57203;42.672;23.334;2024-01-30T01:32:52;8.9;;;5.2;;
69917;SDS011;57203;42.672;23.334;2024-01-30T01:33:53;8.9;;;4.9;;
69917;SDS011;57203;42.672;23.334;2024-01-30T01:34:53;7.5;;;4.4;;
69917;SDS011;57203;42.672;23.334;2024-01-30T01:35:53;7.5;;;4.5;;
69917;SDS011;57203;42.672;23.334;2024-01-30T01:36:53;7.3;;;4.7;;
69917;SDS011;57203;42.672;23.334;2024-01-30T01:37:53;7.3;;;4.6;;
69917;SDS011;57203;42.672;23.334;2024-01-30T01:38:53;8.7;;;4.8;;
69917;SDS011;57203;42.672;23.334;2024-01-30T01:39:54;8.7;;;4.4;;
69917;SDS011;57203;42.672;23.334;2024-01-30T01:40:53;7.0;;;4.6;;
69917;SDS011;57203;42.672;23.334;2024-01-30T01:41:54;7.3;;;5.1;;
69917;SDS011;57203;42.672;23.334;2024-01-30T01:42:55;7.8;;;4.9;;
69917;SDS011;57203;42.672;23.334;2024-01-30T01:43:54;7.8;;;4.6;;
69917;SDS011;57203;42.672;23.334;2024-01-30T01:44:54;8.4;;;4.9;;
69917;SDS011;57203;42.672;23.334;2024-01-30T01:45:54;9.8;;;5.0;;
69917;SDS011;57203;42.672;23.334;2024-01-30T01:46:54;7.5;;;4.4;;
69917;SDS011;57203;42.672;23.334;2024-01-30T01:47:54;9.1;;;4.6;;
69917;SDS011;57203;42.672;23.334;2024-01-30T01:48:55;7.0;;;4.4;;
69917;SDS011;57203;42.672;23.334;2024-01-30T01:49:55;7.0;;;4.9;;
69917;SDS011;57203;42.672;23.334;2024-01-30T01:50:55;7.3;;;4.8;;
69917;SDS011;57203;42.672;23.334;2024-01-30T01:51:55;6.4;;;4.9;;
69917;SDS011;57203;42.672;23.334;2024-01-30T01:52:55;7.4;;;4.8;;
69917;SDS011;57203;42.672;23.334;2024-01-30T01:54:55;7.5;;;4.8;;
69917;SDS011;57203;42.672;23.334;2024-01-30T01:55:56;8.2;;;4.3;;
69917;SDS011;57203;42.672;23.334;2024-01-30T01:56:56;7.8;;;5.0;;
69917;SDS011;57203;42.672;23.334;2024-01-30T01:57:56;7.8;;;4.5;;
69917;SDS011;57203;42.672;23.334;2024-01-30T01:58:57;7.5;;;4.9;;
69917;SDS011;57203;42.672;23.334;2024-01-30T02:00:56;8.0;;;4.6;;
69917;SDS011;57203;42.672;23.334;2024-01-30T02:02:57;9.6;;;5.3;;
69917;SDS011;57203;42.672;23.334;2024-01-30T02:03:57;6.8;;;5.0;;
69917;SDS011;57203;42.672;23.334;2024-01-30T02:04:57;6.8;;;4.8;;
69917;SDS011;57203;42.672;23.334;2024-01-30T02:05:57;8.3;;;4.5;;
69917;SDS011;57203;42.672;23.334;2024-01-30T02:06:57;7.1;;;4.4;;
69917;SDS011;57203;42.672;23.334;2024-01-30T02:07:57;6.5;;;4.9;;
69917;SDS011;57203;42.672;23.334;2024-01-30T02:08:57;9.8;;;4.7;;
69917;SDS011;57203;42.672;23.334;2024-01-30T02:09:58;6.7;;;4.8;;
69917;SDS011;57203;42.672;23.334;2024-01-30T02:10:58;10.8;;;6.0;;
69917;SDS011;57203;42.672;23.334;2024-01-30T02:11:58;9.0;;;5.3;;
69917;SDS011;57203;42.672;23.334;2024-01-30T02:12:58;9.3;;;5.7;;
69917;SDS011;57203;42.672;23.334;2024-01-30T02:14:01;8.9;;;5.3;;
69917;SDS011;57203;42.672;23.334;2024-01-30T02:14:58;9.2;;;5.6;;
69917;SDS011;57203;42.672;23.334;2024-01-30T02:15:58;9.2;;;4.6;;
69917;SDS011;57203;42.672;23.334;2024-01-30T02:16:59;11.2;;;4.8;;
69917;SDS011;57203;42.672;23.334;2024-01-30T02:17:59;7.8;;;4.3;;
69917;SDS011;57203;42.672;23.334;2024-01-30T02:19:59;7.3;;;4.4;;
69917;SDS011;57203;42.672;23.334;2024-01-30T02:20:59;7.3;;;4.8;;
69917;SDS011;57203;42.672;23.334;2024-01-30T02:21:59;7.8;;;4.6;;
69917;SDS011;57203;42.672;23.334;2024-01-30T02:22:59;7.8;;;4.5;;
69917;SDS011;57203;42.672;23.334;2024-01-30T02:23:59;8.6;;;4.3;;
69917;SDS011;57203;42.672;23.334;2024-01-30T02:25:00;6.7;;;4.1;;
69917;SDS011;57203;42.672;23.334;2024-01-30T02:26:00;5.9;;;5.3;;
69917;SDS011;57203;42.672;23.334;2024-01-30T02:27:00;7.5;;;5.0;;
69917;SDS011;57203;42.672;23.334;2024-01-30T02:28:00;9.6;;;4.8;;
69917;SDS011;57203;42.672;23.334;2024-01-30T02:29:00;9.6;;;4.7;;
69917;SDS011;57203;42.672;23.334;2024-01-30T02:30:00;7.9;;;4.5;;
69917;SDS011;57203;42.672;23.334;2024-01-30T02:32:01;8.5;;;4.4;;
69917;SDS011;57203;42.672;23.334;2024-01-30T02:33:01;7.7;;;4.8;;
69917;SDS011;57203;42.672;23.334;2024-01-30T02:34:01;7.7;;;4.0;;
69917;SDS011;57203;42.672;23.334;2024-01-30T02:35:01;5.6;;;4.1;;
69917;SDS011;57203;42.672;23.334;2024-01-30T02:36:01;10.1;;;4.3;;
69917;SDS011;57203;42.672;23.334;2024-01-30T02:37:01;5.8;;;3.9;;
69917;SDS011;57203;42.672;23.334;2024-01-30T02:38:02;5.8;;;4.2;;
69917;SDS011;57203;42.672;23.334;2024-01-30T02:39:02;7.2;;;4.4;;
69917;SDS011;57203;42.672;23.334;2024-01-30T02:41:02;23.0;;;12.9;;
69917;SDS011;57203;42.672;23.334;2024-01-30T02:42:02;23.0;;;6.3;;
69917;SDS011;57203;42.672;23.334;2024-01-30T02:43:02;11.4;;;11.6;;
69917;SDS011;57203;42.672;23.334;2024-01-30T02:44:03;21.9;;;6.0;;
69917;SDS011;57203;42.672;23.334;2024-01-30T02:45:03;10.4;;;4.6;;
69917;SDS011;57203;42.672;23.334;2024-01-30T02:46:03;5.9;;;4.3;;
69917;SDS011;57203;42.672;23.334;2024-01-30T02:47:03;5.6;;;3.8;;
69917;SDS011;57203;42.672;23.334;2024-01-30T02:48:03;6.2;;;4.5;;
69917;SDS011;57203;42.672;23.334;2024-01-30T02:49:03;6.2;;;3.8;;
69917;SDS011;57203;42.672;23.334;2024-01-30T02:50:03;6.0;;;3.6;;
69917;SDS011;57203;42.672;23.334;2024-01-30T02:51:03;4.8;;;4.1;;
69917;SDS011;57203;42.672;23.334;2024-01-30T02:52:04;5.9;;;3.5;;
69917;SDS011;57203;42.672;23.334;2024-01-30T02:53:04;5.2;;;3.7;;
69917;SDS011;57203;42.672;23.334;2024-01-30T02:55:04;6.8;;;4.0;;
69917;SDS011;57203;42.672;23.334;2024-01-30T02:56:04;5.7;;;4.5;;
69917;SDS011;57203;42.672;23.334;2024-01-30T02:57:04;7.4;;;4.1;;
69917;SDS011;57203;42.672;23.334;2024-01-30T02:58:04;5.9;;;3.8;;
69917;SDS011;57203;42.672;23.334;2024-01-30T02:59:05;5.9;;;3.6;;
69917;SDS011;57203;42.672;23.334;2024-01-30T03:00:05;6.6;;;3.9;;
69917;SDS011;57203;42.672;23.334;2024-01-30T03:01:05;5.6;;;4.4;;
69917;SDS011;57203;42.672;23.334;2024-01-30T03:02:05;5.1;;;4.0;;
69917;SDS011;57203;42.672;23.334;2024-01-30T03:03:05;5.1;;;3.9;;
69917;SDS011;57203;42.672;23.334;2024-01-30T03:04:05;7.1;;;4.1;;
69917;SDS011;57203;42.672;23.334;2024-01-30T03:05:06;7.5;;;3.8;;
69917;SDS011;57203;42.672;23.334;2024-01-30T03:07:06;5.4;;;3.5;;
69917;SDS011;57203;42.672;23.334;2024-01-30T03:08:06;4.9;;;3.2;;
69917;SDS011;57203;42.672;23.334;2024-01-30T03:09:06;5.6;;;3.3;;
69917;SDS011;57203;42.672;23.334;2024-01-30T03:10:06;5.6;;;3.5;;
69917;SDS011;57203;42.672;23.334;2024-01-30T03:11:06;6.4;;;3.9;;
69917;SDS011;57203;42.672;23.334;2024-01-30T03:12:06;6.4;;;4.4;;
69917;SDS011;57203;42.672;23.334;2024-01-30T03:13:07;12.5;;;6.8;;
69917;SDS011;57203;42.672;23.334;2024-01-30T03:14:07;12.5;;;8.3;;
69917;SDS011;57203;42.672;23.334;2024-01-30T03:15:07;16.9;;;5.1;;
69917;SDS011;57203;42.672;23.334;2024-01-30T03:16:08;8.4;;;4.9;;
69917;SDS011;57203;42.672;23.334;2024-01-30T03:17:07;6.2;;;4.2;;
69917;SDS011;57203;42.672;23.334;2024-01-30T03:18:07;6.2;;;3.6;;
69917;SDS011;57203;42.672;23.334;2024-01-30T03:19:07;5.9;;;3.8;;
69917;SDS011;57203;42.672;23.334;2024-01-30T03:21:08;5.4;;;3.9;;
69917;SDS011;57203;42.672;23.334;2024-01-30T03:22:08;4.9;;;3.6;;
69917;SDS011;57203;42.672;23.334;2024-01-30T03:24:08;4.3;;;3.1;;
69917;SDS011;57203;42.672;23.334;2024-01-30T03:25:08;7.4;;;3.4;;
69917;SDS011;57203;42.672;23.334;2024-01-30T03:26:08;5.5;;;3.7;;
69917;SDS011;57203;42.672;23.334;2024-01-30T03:27:08;4.0;;;3.1;;
69917;SDS011;57203;42.672;23.334;2024-01-30T03:28:09;4.7;;;3.3;;
69917;SDS011;57203;42.672;23.334;2024-01-30T03:29:09;4.7;;;3.4;;
69917;SDS011;57203;42.672;23.334;2024-01-30T03:30:09;4.5;;;3.1;;
69917;SDS011;57203;42.672;23.334;2024-01-30T03:31:09;5.6;;;3.2;;
69917;SDS011;57203;42.672;23.334;2024-01-30T03:32:09;5.1;;;3.8;;
69917;SDS011;57203;42.672;23.334;2024-01-30T03:33:09;5.1;;;3.3;;
69917;SDS011;57203;42.672;23.334;2024-01-30T03:34:09;4.1;;;2.7;;
69917;SDS011;57203;42.672;23.334;2024-01-30T03:35:10;4.1;;;3.2;;
69917;SDS011;57203;42.672;23.334;2024-01-30T03:36:11;4.7;;;3.6;;
69917;SDS011;57203;42.672;23.334;2024-01-30T03:39:10;6.2;;;3.5;;
69917;SDS011;57203;42.672;23.334;2024-01-30T03:41:10;8.1;;;4.0;;
69917;SDS011;57203;42.672;23.334;2024-01-30T03:43:11;6.0;;;5.1;;
69917;SDS011;57203;42.672;23.334;2024-01-30T03:44:11;7.1;;;4.1;;
69917;SDS011;57203;42.672;23.334;2024-01-30T03:45:11;7.1;;;4.8;;
69917;SDS011;57203;42.672;23.334;2024-01-30T03:46:11;8.8;;;3.9;;
69917;SDS011;57203;42.672;23.334;2024-01-30T03:47:11;7.3;;;3.7;;
69917;SDS011;57203;42.672;23.334;2024-01-30T03:48:12;7.3;;;3.5;;
69917;SDS011;57203;42.672;23.334;2024-01-30T03:49:12;9.4;;;4.0;;
69917;SDS011;57203;42.672;23.334;2024-01-30T03:50:12;4.9;;;3.6;;
69917;SDS011;57203;42.672;23.334;2024-01-30T03:51:12;4.9;;;3.9;;
69917;SDS011;57203;42.672;23.334;2024-01-30T03:52:12;5.5;;;3.3;;
69917;SDS011;57203;42.672;23.334;2024-01-30T03:53:12;6.7;;;3.0;;
69917;SDS011;57203;42.672;23.334;2024-01-30T03:55:13;6.7;;;3.0;;
69917;SDS011;57203;42.672;23.334;2024-01-30T03:56:13;5.1;;;3.7;;
69917;SDS011;57203;42.672;23.334;2024-01-30T03:57:13;8.6;;;3.2;;
69917;SDS011;57203;42.672;23.334;2024-01-30T03:58:13;5.3;;;2.8;;
69917;SDS011;57203;42.672;23.334;2024-01-30T03:59:13;4.2;;;2.6;;
69917;SDS011;57203;42.672;23.334;2024-01-30T04:00:14;4.2;;;2.7;;
69917;SDS011;57203;42.672;23.334;2024-01-30T04:01:13;4.2;;;3.2;;
69917;SDS011;57203;42.672;23.334;2024-01-30T04:02:14;5.7;;;3.0;;
69917;SDS011;57203;42.672;23.334;2024-01-30T04:03:14;5.7;;;2.5;;
69917;SDS011;57203;42.672;23.334;2024-01-30T04:05:14;4.0;;;2.3;;
69917;SDS011;57203;42.672;23.334;2024-01-30T04:06:14;3.3;;;2.2;;
69917;SDS011;57203;42.672;23.334;2024-01-30T04:07:14;3.3;;;2.5;;
69917;SDS011;57203;42.672;23.334;2024-01-30T04:08:14;3.4;;;3.1;;
69917;SDS011;57203;42.672;23.334;2024-01-30T04:09:15;3.9;;;2.6;;
69917;SDS011;57203;42.672;23.334;2024-01-30T04:10:15;3.9;;;2.9;;
69917;SDS011;57203;42.672;23.334;2024-01-30T04:11:15;4.3;;;2.8;;
69917;SDS011;57203;42.672;23.334;2024-01-30T04:12:15;6.0;;;3.0;;
69917;SDS011;57203;42.672;23.334;2024-01-30T04:13:15;4.8;;;3.3;;
69917;SDS011;57203;42.672;23.334;2024-01-30T04:14:15;5.3;;;3.9;;
69917;SDS011;57203;42.672;23.334;2024-01-30T04:15:15;5.3;;;9.3;;
69917;SDS011;57203;42.672;23.334;2024-01-30T04:16:19;18.0;;;10.4;;
69917;SDS011;57203;42.672;23.334;2024-01-30T04:17:16;20.7;;;5.2;;
69917;SDS011;57203;42.672;23.334;2024-01-30T04:18:16;9.8;;;3.4;;
69917;SDS011;57203;42.672;23.334;2024-01-30T04:19:16;5.1;;;3.1;;
69917;SDS011;57203;42.672;23.334;2024-01-30T04:21:17;5.2;;;2.9;;
69917;SDS011;57203;42.672;23.334;2024-01-30T04:22:16;4.1;;;3.1;;
69917;SDS011;57203;42.672;23.334;2024-01-30T04:23:16;4.1;;;3.3;;
69917;SDS011;57203;42.672;23.334;2024-01-30T04:25:17;4.0;;;2.8;;
69917;SDS011;57203;42.672;23.334;2024-01-30T04:26:17;4.0;;;2.9;;
69917;SDS011;57203;42.672;23.334;2024-01-30T04:27:17;5.8;;;3.5;;
69917;SDS011;57203;42.672;23.334;2024-01-30T04:28:17;5.8;;;3.6;;
69917;SDS011;57203;42.672;23.334;2024-01-30T04:30:17;5.9;;;3.4;;
69917;SDS011;57203;42.672;23.334;2024-01-30T04:31:18;7.1;;;3.2;;
69917;SDS011;57203;42.672;23.334;2024-01-30T04:32:19;4.3;;;3.0;;
69917;SDS011;57203;42.672;23.334;2024-01-30T04:33:18;4.8;;;2.7;;
69917;SDS011;57203;42.672;23.334;2024-01-30T04:34:18;5.5;;;3.2;;
69917;SDS011;57203;42.672;23.334;2024-01-30T04:35:18;5.5;;;2.7;;
69917;SDS011;57203;42.672;23.334;2024-01-30T04:36:18;4.5;;;3.0;;
69917;SDS011;57203;42.672;23.334;2024-01-30T04:37:18;4.5;;;2.8;;
69917;SDS011;57203;42.672;23.334;2024-01-30T04:38:19;4.1;;;3.3;;
69917;SDS011;57203;42.672;23.334;2024-01-30T04:39:19;6.8;;;3.1;;
69917;SDS011;57203;42.672;23.334;2024-01-30T04:40:19;6.1;;;2.6;;
69917;SDS011;57203;42.672;23.334;2024-01-30T04:41:19;6.0;;;3.1;;
69917;SDS011;57203;42.672;23.334;2024-01-30T04:42:19;9.0;;;3.3;;
69917;SDS011;57203;42.672;23.334;2024-01-30T04:43:19;7.9;;;3.0;;
69917;SDS011;57203;42.672;23.334;2024-01-30T04:44:19;7.9;;;3.8;;
69917;SDS011;57203;42.672;23.334;2024-01-30T04:45:20;8.5;;;3.9;;
69917;SDS011;57203;42.672;23.334;2024-01-30T04:46:20;9.1;;;4.0;;
69917;SDS011;57203;42.672;23.334;2024-01-30T04:47:20;9.1;;;3.6;;
69917;SDS011;57203;42.672;23.334;2024-01-30T04:49:20;6.9;;;3.2;;
69917;SDS011;57203;42.672;23.334;2024-01-30T04:50:20;8.6;;;3.5;;
69917;SDS011;57203;42.672;23.334;2024-01-30T04:51:21;5.4;;;3.3;;
69917;SDS011;57203;42.672;23.334;2024-01-30T04:52:21;5.4;;;2.8;;
69917;SDS011;57203;42.672;23.334;2024-01-30T04:53:21;5.5;;;3.2;;
69917;SDS011;57203;42.672;23.334;2024-01-30T04:54:21;5.4;;;3.1;;
69917;SDS011;57203;42.672;23.334;2024-01-30T04:55:21;5.9;;;3.3;;
69917;SDS011;57203;42.672;23.334;2024-01-30T04:56:21;5.4;;;3.2;;
69917;SDS011;57203;42.672;23.334;2024-01-30T04:57:21;5.4;;;3.1;;
69917;SDS011;57203;42.672;23.334;2024-01-30T04:58:21;4.0;;;3.0;;
69917;SDS011;57203;42.672;23.334;2024-01-30T04:59:22;6.2;;;2.5;;
69917;SDS011;57203;42.672;23.334;2024-01-30T05:00:22;6.2;;;2.8;;
69917;SDS011;57203;42.672;23.334;2024-01-30T05:01:22;5.4;;;2.5;;
69917;SDS011;57203;42.672;23.334;2024-01-30T05:03:22;4.7;;;2.2;;
69917;SDS011;57203;42.672;23.334;2024-01-30T05:04:22;3.4;;;2.7;;
69917;SDS011;57203;42.672;23.334;2024-01-30T05:05:22;4.5;;;2.4;;
69917;SDS011;57203;42.672;23.334;2024-01-30T05:06:24;3.6;;;2.7;;
69917;SDS011;57203;42.672;23.334;2024-01-30T05:08:23;4.4;;;2.8;;
69917;SDS011;57203;42.672;23.334;2024-01-30T05:09:23;4.2;;;3.4;;
69917;SDS011;57203;42.672;23.334;2024-01-30T05:10:23;7.8;;;3.2;;
69917;SDS011;57203;42.672;23.334;2024-01-30T05:12:24;6.3;;;3.1;;
69917;SDS011;57203;42.672;23.334;2024-01-30T05:13:24;6.5;;;3.2;;
69917;SDS011;57203;42.672;23.334;2024-01-30T05:14:24;6.5;;;3.0;;
69917;SDS011;57203;42.672;23.334;2024-01-30T05:15:24;7.8;;;3.7;;
69917;SDS011;57203;42.672;23.334;2024-01-30T05:16:24;7.8;;;4.5;;
69917;SDS011;57203;42.672;23.334;2024-01-30T05:17:24;7.5;;;3.9;;
69917;SDS011;57203;42.672;23.334;2024-01-30T05:18:24;7.5;;;3.7;;
69917;SDS011;57203;42.672;23.334;2024-01-30T05:20:25;7.8;;;3.6;;
69917;SDS011;57203;42.672;23.334;2024-01-30T05:21:25;5.0;;;3.5;;
69917;SDS011;57203;42.672;23.334;2024-01-30T05:22:25;5.0;;;3.4;;
69917;SDS011;57203;42.672;23.334;2024-01-30T05:23:25;5.0;;;3.8;;
69917;SDS011;57203;42.672;23.334;2024-01-30T05:24:25;6.3;;;3.6;;
69917;SDS011;57203;42.672;23.334;2024-01-30T05:25:25;7.7;;;3.8;;
69917;SDS011;57203;42.672;23.334;2024-01-30T05:26:26;6.7;;;3.9;;
69917;SDS011;57203;42.672;23.334;2024-01-30T05:27:26;8.6;;;4.6;;
69917;SDS011;57203;42.672;23.334;2024-01-30T05:28:26;7.3;;;4.3;;
69917;SDS011;57203;42.672;23.334;2024-01-30T05:29:26;7.3;;;4.1;;
69917;SDS011;57203;42.672;23.334;2024-01-30T05:30:26;9.5;;;3.8;;
69917;SDS011;57203;42.672;23.334;2024-01-30T05:31:26;7.3;;;4.0;;
69917;SDS011;57203;42.672;23.334;2024-01-30T05:32:26;6.2;;;4.3;;
69917;SDS011;57203;42.672;23.334;2024-01-30T05:33:27;6.2;;;4.1;;
69917;SDS011;57203;42.672;23.334;2024-01-30T05:34:27;10.1;;;4.3;;
69917;SDS011;57203;42.672;23.334;2024-01-30T05:35:27;10.1;;;4.0;;
69917;SDS011;57203;42.672;23.334;2024-01-30T05:36:27;7.3;;;4.1;;
69917;SDS011;57203;42.672;23.334;2024-01-30T05:37:27;10.4;;;4.2;;
69917;SDS011;57203;42.672;23.334;2024-01-30T05:38:27;10.0;;;4.4;;
69917;SDS011;57203;42.672;23.334;2024-01-30T05:39:27;10.0;;;4.3;;
69917;SDS011;57203;42.672;23.334;2024-01-30T05:40:28;10.5;;;4.4;;
69917;SDS011;57203;42.672;23.334;2024-01-30T05:41:28;8.1;;;4.1;;
69917;SDS011;57203;42.672;23.334;2024-01-30T05:42:28;7.1;;;4.8;;
69917;SDS011;57203;42.672;23.334;2024-01-30T05:43:28;12.4;;;5.2;;
69917;SDS011;57203;42.672;23.334;2024-01-30T05:44:28;12.4;;;4.4;;
69917;SDS011;57203;42.672;23.334;2024-01-30T05:46:28;10.9;;;4.3;;
69917;SDS011;57203;42.672;23.334;2024-01-30T05:47:28;7.6;;;4.2;;
69917;SDS011;57203;42.672;23.334;2024-01-30T05:48:29;7.6;;;4.4;;
69917;SDS011;57203;42.672;23.334;2024-01-30T05:49:29;7.1;;;4.3;;
69917;SDS011;57203;42.672;23.334;2024-01-30T05:50:29;7.5;;;4.0;;
69917;SDS011;57203;42.672;23.334;2024-01-30T05:51:29;10.1;;;4.5;;
69917;SDS011;57203;42.672;23.334;2024-01-30T05:52:29;10.1;;;4.7;;
69917;SDS011;57203;42.672;23.334;2024-01-30T05:54:29;8.6;;;4.4;;
69917;SDS011;57203;42.672;23.334;2024-01-30T05:55:30;6.4;;;4.3;;
69917;SDS011;57203;42.672;23.334;2024-01-30T05:56:30;7.5;;;4.5;;
69917;SDS011;57203;42.672;23.334;2024-01-30T05:57:30;7.5;;;5.1;;
69917;SDS011;57203;42.672;23.334;2024-01-30T05:58:30;17.8;;;5.8;;
69917;SDS011;57203;42.672;23.334;2024-01-30T05:59:30;17.8;;;5.3;;
69917;SDS011;57203;42.672;23.334;2024-01-30T06:00:30;12.6;;;6.1;;
69917;SDS011;57203;42.672;23.334;2024-01-30T06:01:30;12.6;;;6.7;;
69917;SDS011;57203;42.672;23.334;2024-01-30T06:02:31;11.0;;;5.7;;
69917;SDS011;57203;42.672;23.334;2024-01-30T06:03:31;11.0;;;6.1;;
69917;SDS011;57203;42.672;23.334;2024-01-30T06:04:31;23.3;;;6.3;;
69917;SDS011;57203;42.672;23.334;2024-01-30T06:05:31;30.4;;;7.6;;
69917;SDS011;57203;42.672;23.334;2024-01-30T06:06:31;31.4;;;11.0;;
69917;SDS011;57203;42.672;23.334;2024-01-30T06:07:31;31.4;;;6.9;;
69917;SDS011;57203;42.672;23.334;2024-01-30T06:08:31;22.1;;;8.1;;
69917;SDS011;57203;42.672;23.334;2024-01-30T06:09:32;18.5;;;6.6;;
69917;SDS011;57203;42.672;23.334;2024-01-30T06:10:32;18.5;;;5.3;;
69917;SDS011;57203;42.672;23.334;2024-01-30T06:11:32;16.9;;;6.1;;
69917;SDS011;57203;42.672;23.334;2024-01-30T06:12:32;17.3;;;6.3;;
69917;SDS011;57203;42.672;23.334;2024-01-30T06:13:32;17.6;;;5.7;;
69917;SDS011;57203;42.672;23.334;2024-01-30T06:14:32;19.7;;;5.9;;
69917;SDS011;57203;42.672;23.334;2024-01-30T06:16:33;15.5;;;5.7;;
69917;SDS011;57203;42.672;23.334;2024-01-30T06:17:33;11.8;;;6.0;;
69917;SDS011;57203;42.672;23.334;2024-01-30T06:18:33;15.2;;;6.6;;
69917;SDS011;57203;42.672;23.334;2024-01-30T06:19:33;16.7;;;5.9;;
69917;SDS011;57203;42.672;23.334;2024-01-30T06:20:33;18.3;;;6.2;;
69917;SDS011;57203;42.672;23.334;2024-01-30T06:21:33;21.2;;;7.1;;
69917;SDS011;57203;42.672;23.334;2024-01-30T06:22:33;13.4;;;6.8;;
69917;SDS011;57203;42.672;23.334;2024-01-30T06:23:33;13.4;;;7.2;;
69917;SDS011;57203;42.672;23.334;2024-01-30T06:24:34;25.7;;;7.3;;
69917;SDS011;57203;42.672;23.334;2024-01-30T06:25:34;31.3;;;8.0;;
69917;SDS011;57203;42.672;23.334;2024-01-30T06:26:34;31.3;;;7.1;;
69917;SDS011;57203;42.672;23.334;2024-01-30T06:27:34;25.8;;;7.6;;
69917;SDS011;57203;42.672;23.334;2024-01-30T06:28:34;25.8;;;8.3;;
69917;SDS011;57203;42.672;23.334;2024-01-30T06:29:34;28.2;;;7.2;;
69917;SDS011;57203;42.672;23.334;2024-01-30T06:30:34;20.5;;;8.7;;
69917;SDS011;57203;42.672;23.334;2024-01-30T06:31:39;28.2;;;7.7;;
69917;SDS011;57203;42.672;23.334;2024-01-30T06:32:35;29.4;;;8.2;;
69917;SDS011;57203;42.672;23.334;2024-01-30T06:33:35;29.4;;;7.9;;
69917;SDS011;57203;42.672;23.334;2024-01-30T06:34:35;22.6;;;8.9;;
69917;SDS011;57203;42.672;23.334;2024-01-30T06:35:35;33.7;;;7.8;;
69917;SDS011;57203;42.672;23.334;2024-01-30T06:36:35;30.4;;;7.7;;
69917;SDS011;57203;42.672;23.334;2024-01-30T06:37:35;25.6;;;7.2;;
69917;SDS011;57203;42.672;23.334;2024-01-30T06:38:36;25.6;;;7.4;;
69917;SDS011;57203;42.672;23.334;2024-01-30T06:39:36;21.0;;;6.6;;
69917;SDS011;57203;42.672;23.334;2024-01-30T06:40:36;21.0;;;8.2;;
69917;SDS011;57203;42.672;23.334;2024-01-30T06:41:36;28.2;;;11.7;;
69917;SDS011;57203;42.672;23.334;2024-01-30T06:42:36;27.5;;;10.5;;
69917;SDS011;57203;42.672;23.334;2024-01-30T06:43:36;19.8;;;9.6;;